Terminal Aerodrome Forecast
Issued by NWS

Current Version | Previous Version | Graphics & Text | Print | Product List | Glossary On
Versions: 1 2 3 4 5 6 7 8 9 10 11 12 13 14 15 16 17 18 19 20 21 22 23 24 25 26 27 28 29 30 31 32 33 34 35 36
000
FTUS41 KRNK 190539
TAFLWB
TAF
KLWB 190539Z 1906/2006 10003KT P6SM SCT120
     FM191000 07010KT P6SM OVC080
     FM191500 10010G18KT 5SM -RA BR OVC025
     FM192100 13010G18KT 3SM -RA BR OVC012
     FM200200 04009KT 4SM -RA BR OVC015 WS020/13042KT=

USA.gov is the U.S. government's official web portal to all federal, state and local government web resources and services.